sensor_id;sensor_type;location;lat;lon;timestamp;pressure;altitude;pressure_sealevel;temperature;humidity
63731;BME280;49747;51.334;6.830;2023-01-29T00:02:04;102502.09;;;6.14;53.14
63731;BME280;49747;51.334;6.830;2023-01-29T00:04:31;102495.13;;;6.11;53.01
63731;BME280;49747;51.334;6.830;2023-01-29T00:06:58;102500.34;;;6.14;52.92
63731;BME280;49747;51.334;6.830;2023-01-29T00:09:26;102502.06;;;6.15;52.60
63731;BME280;49747;51.334;6.830;2023-01-29T00:11:53;102503.78;;;6.16;52.71
63731;BME280;49747;51.334;6.830;2023-01-29T00:14:20;102505.56;;;6.16;52.69
63731;BME280;49747;51.334;6.830;2023-01-29T00:16:46;102507.28;;;6.17;52.79
63731;BME280;49747;51.334;6.830;2023-01-29T00:19:13;102503.75;;;6.18;53.06
63731;BME280;49747;51.334;6.830;2023-01-29T00:21:39;102501.09;;;6.20;52.82
63731;BME280;49747;51.334;6.830;2023-01-29T00:24:05;102500.25;;;6.17;52.92
63731;BME280;49747;51.334;6.830;2023-01-29T00:26:32;102491.44;;;6.19;52.59
63731;BME280;49747;51.334;6.830;2023-01-29T00:28:58;102485.25;;;6.20;52.14
63731;BME280;49747;51.334;6.830;2023-01-29T00:31:28;102480.00;;;6.18;51.79
63731;BME280;49747;51.334;6.830;2023-01-29T00:33:55;102485.31;;;6.16;51.65
63731;BME280;49747;51.334;6.830;2023-01-29T00:36:22;102493.16;;;6.20;51.78
63731;BME280;49747;51.334;6.830;2023-01-29T00:38:57;102487.91;;;6.18;51.88
63731;BME280;49747;51.334;6.830;2023-01-29T00:41:30;102487.91;;;6.18;51.72
63731;BME280;49747;51.334;6.830;2023-01-29T00:44:16;102479.31;;;6.11;51.89
63731;BME280;49747;51.334;6.830;2023-01-29T00:47:02;102486.19;;;6.17;52.01
63731;BME280;49747;51.334;6.830;2023-01-29T00:49:29;102484.41;;;6.17;51.83
63731;BME280;49747;51.334;6.830;2023-01-29T00:51:57;102480.09;;;6.15;51.76
63731;BME280;49747;51.334;6.830;2023-01-29T00:54:43;102482.69;;;6.16;51.55
63731;BME280;49747;51.334;6.830;2023-01-29T00:57:09;102485.31;;;6.16;51.53
63731;BME280;49747;51.334;6.830;2023-01-29T00:59:36;102483.53;;;6.17;51.47
63731;BME280;49747;51.334;6.830;2023-01-29T01:02:02;102487.09;;;6.16;51.29
63731;BME280;49747;51.334;6.830;2023-01-29T01:04:47;102495.06;;;6.14;51.51
63731;BME280;49747;51.334;6.830;2023-01-29T01:07:14;102495.06;;;6.14;51.30
63731;BME280;49747;51.334;6.830;2023-01-29T01:09:40;102489.78;;;6.14;51.44
63731;BME280;49747;51.334;6.830;2023-01-29T01:12:27;102486.38;;;6.09;51.47
63731;BME280;49747;51.334;6.830;2023-01-29T01:14:53;102495.88;;;6.16;51.29
63731;BME280;49747;51.334;6.830;2023-01-29T01:17:20;102502.00;;;6.17;51.56
63731;BME280;49747;51.334;6.830;2023-01-29T01:19:46;102495.75;;;6.21;51.58
63731;BME280;49747;51.334;6.830;2023-01-29T01:22:13;102493.09;;;6.23;52.03
63731;BME280;49747;51.334;6.830;2023-01-29T01:24:39;102493.09;;;6.23;51.94
63731;BME280;49747;51.334;6.830;2023-01-29T01:27:05;102493.03;;;6.24;51.40
63731;BME280;49747;51.334;6.830;2023-01-29T01:29:32;102476.28;;;6.25;51.42
63731;BME280;49747;51.334;6.830;2023-01-29T01:31:58;102469.22;;;6.27;51.50
63731;BME280;49747;51.334;6.830;2023-01-29T01:34:25;102460.38;;;6.28;51.35
63731;BME280;49747;51.334;6.830;2023-01-29T01:36:55;102452.59;;;6.24;51.58
63731;BME280;49747;51.334;6.830;2023-01-29T01:39:22;102444.63;;;6.25;51.92
63731;BME280;49747;51.334;6.830;2023-01-29T01:41:50;102451.63;;;6.26;51.98
63731;BME280;49747;51.334;6.830;2023-01-29T01:44:50;102451.69;;;6.25;52.22
63731;BME280;49747;51.334;6.830;2023-01-29T01:47:29;102449.03;;;6.25;52.91
63731;BME280;49747;51.334;6.830;2023-01-29T01:49:59;102449.09;;;6.23;52.69
63731;BME280;49747;51.334;6.830;2023-01-29T01:52:29;102450.88;;;6.21;52.62
63731;BME280;49747;51.334;6.830;2023-01-29T01:54:57;102442.97;;;6.21;52.17
63731;BME280;49747;51.334;6.830;2023-01-29T01:57:26;102448.25;;;6.21;52.63
63731;BME280;49747;51.334;6.830;2023-01-29T02:00:03;102455.31;;;6.21;52.47
63731;BME280;49747;51.334;6.830;2023-01-29T02:02:40;102454.44;;;6.20;52.77
63731;BME280;49747;51.334;6.830;2023-01-29T02:05:26;102456.28;;;6.16;52.66
63731;BME280;49747;51.334;6.830;2023-01-29T02:08:13;102458.00;;;6.17;53.12
63731;BME280;49747;51.334;6.830;2023-01-29T02:10:59;102460.72;;;6.16;52.51
63731;BME280;49747;51.334;6.830;2023-01-29T02:13:26;102465.06;;;6.17;52.74
63731;BME280;49747;51.334;6.830;2023-01-29T02:15:52;102463.41;;;6.13;52.24
63731;BME280;49747;51.334;6.830;2023-01-29T02:18:20;102464.25;;;6.15;52.26
63731;BME280;49747;51.334;6.830;2023-01-29T02:29:36;102489.00;;;6.11;52.63
63731;BME280;49747;51.334;6.830;2023-01-29T02:37:40;102499.56;;;6.09;51.68
63731;BME280;49747;51.334;6.830;2023-01-29T02:40:17;102488.16;;;6.09;51.57
63731;BME280;49747;51.334;6.830;2023-01-29T02:43:02;102490.97;;;6.03;51.50
63731;BME280;49747;51.334;6.830;2023-01-29T02:45:52;102476.13;;;5.97;51.34
63731;BME280;49747;51.334;6.830;2023-01-29T02:48:24;102478.66;;;6.02;51.25
63731;BME280;49747;51.334;6.830;2023-01-29T02:50:59;102480.31;;;6.06;51.37
63731;BME280;49747;51.334;6.830;2023-01-29T02:53:35;102470.84;;;5.99;51.53
63731;BME280;49747;51.334;6.830;2023-01-29T02:56:19;102473.38;;;6.02;51.45
63731;BME280;49747;51.334;6.830;2023-01-29T02:58:59;102479.44;;;6.05;51.47
63731;BME280;49747;51.334;6.830;2023-01-29T03:01:32;102477.78;;;6.03;51.72
63731;BME280;49747;51.334;6.830;2023-01-29T03:04:06;102470.75;;;6.02;51.67
63731;BME280;49747;51.334;6.830;2023-01-29T03:06:42;102463.69;;;6.02;51.55
63731;BME280;49747;51.334;6.830;2023-01-29T03:12:03;102461.16;;;5.99;52.21
63731;BME280;49747;51.334;6.830;2023-01-29T03:14:48;102474.34;;;5.99;52.20
63731;BME280;49747;51.334;6.830;2023-01-29T03:17:39;102482.25;;;5.99;52.36
63731;BME280;49747;51.334;6.830;2023-01-29T03:20:10;102466.56;;;5.93;52.26
63731;BME280;49747;51.334;6.830;2023-01-29T03:22:43;102468.22;;;5.97;52.14
63731;BME280;49747;51.334;6.830;2023-01-29T03:25:14;102470.97;;;5.92;52.11
63731;BME280;49747;51.334;6.830;2023-01-29T03:28:00;102479.63;;;5.98;51.66
63731;BME280;49747;51.334;6.830;2023-01-29T03:30:54;102466.66;;;5.88;51.57
63731;BME280;49747;51.334;6.830;2023-01-29T03:33:48;102481.41;;;5.97;51.30
63731;BME280;49747;51.334;6.830;2023-01-29T03:36:22;102473.56;;;5.96;51.28
63731;BME280;49747;51.334;6.830;2023-01-29T03:38:52;102481.41;;;5.97;51.24
63731;BME280;49747;51.334;6.830;2023-01-29T03:41:32;102481.41;;;5.97;51.21
63731;BME280;49747;51.334;6.830;2023-01-29T03:44:29;102477.84;;;5.98;51.39
63731;BME280;49747;51.334;6.830;2023-01-29T03:47:25;102463.94;;;5.93;52.96
63731;BME280;49747;51.334;6.830;2023-01-29T03:55:15;102476.25;;;5.92;53.02
63731;BME280;49747;51.334;6.830;2023-01-29T04:00:41;102474.50;;;5.91;53.26
63731;BME280;49747;51.334;6.830;2023-01-29T04:03:20;102469.19;;;5.93;53.13
63731;BME280;49747;51.334;6.830;2023-01-29T04:05:53;102468.38;;;5.89;52.66
63731;BME280;49747;51.334;6.830;2023-01-29T04:08:31;102473.56;;;5.96;52.30
63731;BME280;49747;51.334;6.830;2023-01-29T04:11:06;102467.44;;;5.93;51.81
63731;BME280;49747;51.334;6.830;2023-01-29T04:13:35;102460.38;;;5.94;51.81
63731;BME280;49747;51.334;6.830;2023-01-29T04:16:03;102463.84;;;5.96;51.64
63731;BME280;49747;51.334;6.830;2023-01-29T04:18:53;102457.72;;;5.96;51.45
63731;BME280;49747;51.334;6.830;2023-01-29T04:21:26;102448.94;;;5.95;51.26
63731;BME280;49747;51.334;6.830;2023-01-29T04:23:52;102447.13;;;5.97;51.63
63731;BME280;49747;51.334;6.830;2023-01-29T04:34:39;102436.44;;;6.02;51.61
63731;BME280;49747;51.334;6.830;2023-01-29T04:37:16;102427.59;;;6.04;51.71
63731;BME280;49747;51.334;6.830;2023-01-29T04:40:06;102424.22;;;5.98;51.85
63731;BME280;49747;51.334;6.830;2023-01-29T04:42:47;102429.38;;;6.04;52.27
63731;BME280;49747;51.334;6.830;2023-01-29T04:45:25;102431.94;;;6.05;52.50
63731;BME280;49747;51.334;6.830;2023-01-29T04:48:03;102441.59;;;6.06;52.53
63731;BME280;49747;51.334;6.830;2023-01-29T04:50:41;102428.38;;;6.08;52.84
63731;BME280;49747;51.334;6.830;2023-01-29T04:55:56;102429.19;;;6.10;52.74
63731;BME280;49747;51.334;6.830;2023-01-29T04:58:32;102415.19;;;6.08;52.89
63731;BME280;49747;51.334;6.830;2023-01-29T05:01:04;102415.06;;;6.12;52.99
63731;BME280;49747;51.334;6.830;2023-01-29T05:03:32;102418.63;;;6.10;53.71
63731;BME280;49747;51.334;6.830;2023-01-29T05:06:01;102419.47;;;6.12;53.66
63731;BME280;49747;51.334;6.830;2023-01-29T05:08:29;102421.19;;;6.14;53.83
63731;BME280;49747;51.334;6.830;2023-01-29T05:10:58;102408.00;;;6.13;54.48
63731;BME280;49747;51.334;6.830;2023-01-29T05:13:25;102413.16;;;6.17;54.06
63731;BME280;49747;51.334;6.830;2023-01-29T05:16:02;102387.16;;;6.04;54.39
63731;BME280;49747;51.334;6.830;2023-01-29T05:18:30;102393.03;;;6.13;54.43
63731;BME280;49747;51.334;6.830;2023-01-29T05:21:01;102393.91;;;6.14;54.40
63731;BME280;49747;51.334;6.830;2023-01-29T05:23:29;102391.31;;;6.12;54.67
63731;BME280;49747;51.334;6.830;2023-01-29T05:25:56;102397.31;;;6.17;55.05
63731;BME280;49747;51.334;6.830;2023-01-29T05:28:23;102396.31;;;6.22;54.87
63731;BME280;49747;51.334;6.830;2023-01-29T05:30:52;102394.53;;;6.24;55.11
63731;BME280;49747;51.334;6.830;2023-01-29T05:33:24;102385.63;;;6.26;55.08
63731;BME280;49747;51.334;6.830;2023-01-29T05:35:51;102378.56;;;6.28;54.99
63731;BME280;49747;51.334;6.830;2023-01-29T05:38:19;102381.16;;;6.30;55.15
63731;BME280;49747;51.334;6.830;2023-01-29T05:40:45;102377.56;;;6.32;55.04
63731;BME280;49747;51.334;6.830;2023-01-29T05:43:19;102377.50;;;6.35;54.82
63731;BME280;49747;51.334;6.830;2023-01-29T05:46:00;102381.00;;;6.36;54.83
63731;BME280;49747;51.334;6.830;2023-01-29T05:48:28;102378.41;;;6.34;54.93
63731;BME280;49747;51.334;6.830;2023-01-29T05:51:02;102377.50;;;6.34;54.51
63731;BME280;49747;51.334;6.830;2023-01-29T05:53:29;102380.13;;;6.35;54.50
63731;BME280;49747;51.334;6.830;2023-01-29T05:55:56;102385.41;;;6.35;54.47
63731;BME280;49747;51.334;6.830;2023-01-29T05:58:25;102392.47;;;6.33;54.93
63731;BME280;49747;51.334;6.830;2023-01-29T06:00:52;102395.91;;;6.37;55.06
63731;BME280;49747;51.334;6.830;2023-01-29T06:03:18;102397.63;;;6.38;55.25
63731;BME280;49747;51.334;6.830;2023-01-29T06:05:45;102407.31;;;6.37;55.06
63731;BME280;49747;51.334;6.830;2023-01-29T06:08:11;102409.09;;;6.38;55.55
63731;BME280;49747;51.334;6.830;2023-01-29T06:10:38;102409.09;;;6.38;55.65
63731;BME280;49747;51.334;6.830;2023-01-29T06:13:04;102416.03;;;6.41;55.61
63731;BME280;49747;51.334;6.830;2023-01-29T06:15:32;102410.75;;;6.41;55.94
63731;BME280;49747;51.334;6.830;2023-01-29T06:17:58;102422.16;;;6.41;55.58
63731;BME280;49747;51.334;6.830;2023-01-29T06:20:25;102430.00;;;6.45;55.60
63731;BME280;49747;51.334;6.830;2023-01-29T06:22:51;102414.25;;;6.41;56.21
63731;BME280;49747;51.334;6.830;2023-01-29T06:25:18;102435.22;;;6.48;55.52
63731;BME280;49747;51.334;6.830;2023-01-29T06:27:44;102432.56;;;6.48;55.64
63731;BME280;49747;51.334;6.830;2023-01-29T06:30:11;102430.75;;;6.50;55.61
63731;BME280;49747;51.334;6.830;2023-01-29T06:32:37;102429.88;;;6.51;55.50
63731;BME280;49747;51.334;6.830;2023-01-29T06:35:04;102409.16;;;6.35;55.37
63731;BME280;49747;51.334;6.830;2023-01-29T06:37:30;102434.31;;;6.49;55.38
63731;BME280;49747;51.334;6.830;2023-01-29T06:39:57;102438.66;;;6.50;56.26
63731;BME280;49747;51.334;6.830;2023-01-29T06:42:23;102450.06;;;6.52;56.39
63731;BME280;49747;51.334;6.830;2023-01-29T06:44:54;102429.88;;;6.49;56.66
63731;BME280;49747;51.334;6.830;2023-01-29T06:47:21;102431.50;;;6.55;56.22
63731;BME280;49747;51.334;6.830;2023-01-29T06:49:48;102440.28;;;6.55;56.75
63731;BME280;49747;51.334;6.830;2023-01-29T06:52:15;102423.53;;;6.56;56.43
63731;BME280;49747;51.334;6.830;2023-01-29T06:54:41;102419.09;;;6.57;56.34
63731;BME280;49747;51.334;6.830;2023-01-29T06:57:08;102404.53;;;6.44;55.69
63731;BME280;49747;51.334;6.830;2023-01-29T06:59:34;102407.16;;;6.44;56.28
63731;BME280;49747;51.334;6.830;2023-01-29T07:02:02;102414.19;;;6.45;55.67
63731;BME280;49747;51.334;6.830;2023-01-29T07:04:29;102411.66;;;6.40;55.46
63731;BME280;49747;51.334;6.830;2023-01-29T07:06:55;102413.38;;;6.43;55.92
63731;BME280;49747;51.334;6.830;2023-01-29T07:09:21;102417.75;;;6.42;56.02
63731;BME280;49747;51.334;6.830;2023-01-29T07:11:48;102430.00;;;6.45;56.23
63731;BME280;49747;51.334;6.830;2023-01-29T07:14:14;102424.75;;;6.45;56.31
63731;BME280;49747;51.334;6.830;2023-01-29T07:16:41;102419.47;;;6.45;56.10
63731;BME280;49747;51.334;6.830;2023-01-29T07:19:07;102425.66;;;6.44;55.88
63731;BME280;49747;51.334;6.830;2023-01-29T07:21:34;102422.09;;;6.45;56.41
63731;BME280;49747;51.334;6.830;2023-01-29T07:24:00;102429.94;;;6.48;56.65
63731;BME280;49747;51.334;6.830;2023-01-29T07:26:27;102424.59;;;6.51;56.64
63731;BME280;49747;51.334;6.830;2023-01-29T07:28:53;102425.53;;;6.48;55.88
63731;BME280;49747;51.334;6.830;2023-01-29T07:31:19;102417.81;;;6.40;55.79
63731;BME280;49747;51.334;6.830;2023-01-29T07:33:46;102409.09;;;6.38;55.86
63731;BME280;49747;51.334;6.830;2023-01-29T07:36:13;102394.25;;;6.34;56.23
63731;BME280;49747;51.334;6.830;2023-01-29T07:38:40;102390.13;;;6.24;56.34
63731;BME280;49747;51.334;6.830;2023-01-29T07:41:07;102382.25;;;6.23;56.49
63731;BME280;49747;51.334;6.830;2023-01-29T07:43:34;102385.88;;;6.19;56.50
63731;BME280;49747;51.334;6.830;2023-01-29T07:46:02;102399.97;;;6.17;56.41
63731;BME280;49747;51.334;6.830;2023-01-29T07:48:29;102403.50;;;6.16;57.07
63731;BME280;49747;51.334;6.830;2023-01-29T07:50:55;102402.72;;;6.13;57.46
63731;BME280;49747;51.334;6.830;2023-01-29T07:53:22;102394.03;;;6.09;57.29
63731;BME280;49747;51.334;6.830;2023-01-29T07:55:49;102379.81;;;6.15;57.17
63731;BME280;49747;51.334;6.830;2023-01-29T07:58:15;102384.31;;;6.11;57.14
63731;BME280;49747;51.334;6.830;2023-01-29T08:00:42;102398.44;;;6.09;56.92
63731;BME280;49747;51.334;6.830;2023-01-29T08:03:14;102395.88;;;6.06;56.93
63731;BME280;49747;51.334;6.830;2023-01-29T08:05:42;102400.94;;;6.15;57.79
63731;BME280;49747;51.334;6.830;2023-01-29T08:08:09;102413.13;;;6.19;57.77
63731;BME280;49747;51.334;6.830;2023-01-29T08:10:37;102408.75;;;6.18;58.00
63731;BME280;49747;51.334;6.830;2023-01-29T08:13:04;102411.09;;;6.29;57.91
63731;BME280;49747;51.334;6.830;2023-01-29T08:15:31;102410.22;;;6.28;57.46
63731;BME280;49747;51.334;6.830;2023-01-29T08:18:00;102413.66;;;6.32;57.35
63731;BME280;49747;51.334;6.830;2023-01-29T08:20:26;102415.34;;;6.34;57.24
63731;BME280;49747;51.334;6.830;2023-01-29T08:23:04;102410.94;;;6.35;56.87
63731;BME280;49747;51.334;6.830;2023-01-29T08:25:31;102400.47;;;6.30;56.67
63731;BME280;49747;51.334;6.830;2023-01-29T08:27:59;102413.41;;;6.41;56.88
63731;BME280;49747;51.334;6.830;2023-01-29T08:30:30;102399.34;;;6.40;56.59
63731;BME280;49747;51.334;6.830;2023-01-29T08:32:57;102399.28;;;6.42;56.55
63731;BME280;49747;51.334;6.830;2023-01-29T08:35:23;102395.88;;;6.38;56.64
63731;BME280;49747;51.334;6.830;2023-01-29T08:37:55;102387.00;;;6.41;56.66
63731;BME280;49747;51.334;6.830;2023-01-29T08:40:21;102388.72;;;6.42;56.67
63731;BME280;49747;51.334;6.830;2023-01-29T08:42:48;102393.25;;;6.38;56.77
63731;BME280;49747;51.334;6.830;2023-01-29T08:45:14;102374.00;;;6.33;57.42
63731;BME280;49747;51.334;6.830;2023-01-29T08:47:48;102383.91;;;6.56;89.20
63731;BME280;49747;51.334;6.830;2023-01-29T08:50:16;102395.22;;;5.26;63.13
63731;BME280;49747;51.334;6.830;2023-01-29T08:52:44;102388.31;;;3.93;66.20
63731;BME280;49747;51.334;6.830;2023-01-29T08:55:11;102392.09;;;3.79;67.33
63731;BME280;49747;51.334;6.830;2023-01-29T08:57:38;102368.63;;;3.14;69.19
63731;BME280;49747;51.334;6.830;2023-01-29T09:00:06;102374.47;;;2.71;71.23
63731;BME280;49747;51.334;6.830;2023-01-29T09:02:34;102376.81;;;2.91;71.54
63731;BME280;49747;51.334;6.830;2023-01-29T09:05:00;102379.78;;;2.68;71.76
63731;BME280;49747;51.334;6.830;2023-01-29T09:07:28;102376.00;;;2.89;72.20
63731;BME280;49747;51.334;6.830;2023-01-29T09:09:54;102372.41;;;2.28;74.25
63731;BME280;49747;51.334;6.830;2023-01-29T09:12:21;102380.31;;;2.22;74.49
63731;BME280;49747;51.334;6.830;2023-01-29T09:14:47;102365.63;;;2.07;74.41
63731;BME280;49747;51.334;6.830;2023-01-29T09:17:14;102372.69;;;2.04;75.34
63731;BME280;49747;51.334;6.830;2023-01-29T09:19:40;102377.78;;;2.16;75.49
63731;BME280;49747;51.334;6.830;2023-01-29T09:22:07;102375.47;;;1.85;76.29
63731;BME280;49747;51.334;6.830;2023-01-29T09:24:36;102374.31;;;2.12;75.85
63731;BME280;49747;51.334;6.830;2023-01-29T09:27:02;102368.94;;;2.23;90.66
63731;BME280;49747;51.334;6.830;2023-01-29T09:29:30;102358.22;;;3.06;92.35
63731;BME280;49747;51.334;6.830;2023-01-29T09:31:58;102356.50;;;2.42;77.65
63731;BME280;49747;51.334;6.830;2023-01-29T09:34:24;102352.97;;;2.44;77.09
63731;BME280;49747;51.334;6.830;2023-01-29T09:36:51;102348.38;;;1.88;78.25
63731;BME280;49747;51.334;6.830;2023-01-29T09:39:17;102345.75;;;1.88;78.29
63731;BME280;49747;51.334;6.830;2023-01-29T09:41:51;102345.00;;;1.75;78.50
63731;BME280;49747;51.334;6.830;2023-01-29T09:47:01;102341.38;;;1.87;77.38
63731;BME280;49747;51.334;6.830;2023-01-29T09:49:34;102323.19;;;1.73;78.02
63731;BME280;49747;51.334;6.830;2023-01-29T09:52:09;102330.19;;;1.72;78.89
63731;BME280;49747;51.334;6.830;2023-01-29T09:57:26;102331.97;;;1.66;78.70
63731;BME280;49747;51.334;6.830;2023-01-29T09:59:54;102340.50;;;1.86;78.51
63731;BME280;49747;51.334;6.830;2023-01-29T10:10:59;102343.03;;;1.97;77.24
63731;BME280;49747;51.334;6.830;2023-01-29T10:14:08;102343.34;;;2.45;76.00
63731;BME280;49747;51.334;6.830;2023-01-29T10:24:48;102361.22;;;2.82;74.14
63731;BME280;49747;51.334;6.830;2023-01-29T10:27:17;102359.19;;;2.34;75.43
63731;BME280;49747;51.334;6.830;2023-01-29T10:29:46;102337.50;;;2.21;76.51
63731;BME280;49747;51.334;6.830;2023-01-29T10:32:20;102341.25;;;2.70;75.93
63731;BME280;49747;51.334;6.830;2023-01-29T10:34:51;102345.88;;;2.53;76.16
63731;BME280;49747;51.334;6.830;2023-01-29T10:37:36;102335.75;;;2.88;74.99
63731;BME280;49747;51.334;6.830;2023-01-29T10:40:32;102325.47;;;2.73;74.69
63731;BME280;49747;51.334;6.830;2023-01-29T10:46:42;102322.38;;;2.43;75.56
63731;BME280;49747;51.334;6.830;2023-01-29T10:49:40;102328.50;;;2.44;76.38
63731;BME280;49747;51.334;6.830;2023-01-29T10:55:50;102311.28;;;2.86;74.53
63731;BME280;49747;51.334;6.830;2023-01-29T11:00:24;102277.38;;;2.72;75.52
63731;BME280;49747;51.334;6.830;2023-01-29T11:02:51;102286.19;;;2.67;75.46
63731;BME280;49747;51.334;6.830;2023-01-29T11:05:24;102292.03;;;2.87;75.45
63731;BME280;49747;51.334;6.830;2023-01-29T11:08:09;102293.56;;;2.99;74.54
63731;BME280;49747;51.334;6.830;2023-01-29T11:10:43;102298.25;;;2.79;74.48
63731;BME280;49747;51.334;6.830;2023-01-29T11:13:13;102268.00;;;2.55;74.48
63731;BME280;49747;51.334;6.830;2023-01-29T11:15:40;102284.56;;;2.60;76.33
63731;BME280;49747;51.334;6.830;2023-01-29T11:18:10;102268.38;;;2.89;74.65
63731;BME280;49747;51.334;6.830;2023-01-29T11:20:40;102289.00;;;2.53;76.18
63731;BME280;49747;51.334;6.830;2023-01-29T11:23:33;102277.38;;;2.72;76.56
63731;BME280;49747;51.334;6.830;2023-01-29T11:26:11;102279.03;;;2.16;77.30
63731;BME280;49747;51.334;6.830;2023-01-29T11:28:46;102277.84;;;2.39;77.55
63731;BME280;49747;51.334;6.830;2023-01-29T11:33:51;102267.16;;;2.53;77.04
63731;BME280;49747;51.334;6.830;2023-01-29T11:36:20;102246.47;;;2.31;77.48
63731;BME280;49747;51.334;6.830;2023-01-29T11:39:07;102253.66;;;2.15;78.24
63731;BME280;49747;51.334;6.830;2023-01-29T11:41:43;102246.19;;;2.53;77.95
63731;BME280;49747;51.334;6.830;2023-01-29T11:44:31;102230.50;;;2.46;77.45
63731;BME280;49747;51.334;6.830;2023-01-29T11:49:49;102229.47;;;3.12;75.80
63731;BME280;49747;51.334;6.830;2023-01-29T11:52:21;102219.53;;;3.30;74.75
63731;BME280;49747;51.334;6.830;2023-01-29T11:54:53;102218.75;;;3.25;74.52
63731;BME280;49747;51.334;6.830;2023-01-29T11:57:25;102214.31;;;3.28;74.26
63731;BME280;49747;51.334;6.830;2023-01-29T11:59:54;102219.25;;;2.40;75.96
63731;BME280;49747;51.334;6.830;2023-01-29T12:02:36;102205.91;;;2.55;76.35
63731;BME280;49747;51.334;6.830;2023-01-29T12:05:24;102199.00;;;3.04;75.35
63731;BME280;49747;51.334;6.830;2023-01-29T12:07:54;102196.38;;;3.04;74.95
63731;BME280;49747;51.334;6.830;2023-01-29T12:10:34;102194.53;;;3.09;74.23
63731;BME280;49747;51.334;6.830;2023-01-29T12:13:14;102171.06;;;2.98;75.08
63731;BME280;49747;51.334;6.830;2023-01-29T12:15:47;102172.69;;;2.56;75.75
63731;BME280;49747;51.334;6.830;2023-01-29T12:18:30;102160.50;;;2.50;77.29
63731;BME280;49747;51.334;6.830;2023-01-29T12:21:04;102130.00;;;2.44;76.68
63731;BME280;49747;51.334;6.830;2023-01-29T12:23:46;102145.34;;;2.13;77.40
63731;BME280;49747;51.334;6.830;2023-01-29T12:26:20;102125.81;;;2.31;78.07
63731;BME280;49747;51.334;6.830;2023-01-29T12:29:11;102122.13;;;2.44;77.67
63731;BME280;49747;51.334;6.830;2023-01-29T12:31:55;102110.25;;;2.75;76.82
63731;BME280;49747;51.334;6.830;2023-01-29T12:34:43;102105.94;;;2.70;77.02
63731;BME280;49747;51.334;6.830;2023-01-29T12:37:41;102103.44;;;2.63;76.61
63731;BME280;49747;51.334;6.830;2023-01-29T12:40:13;102085.88;;;2.68;76.70
63731;BME280;49747;51.334;6.830;2023-01-29T12:42:51;102070.50;;;2.94;75.39
63731;BME280;49747;51.334;6.830;2023-01-29T12:45:20;102077.53;;;2.94;74.81
63731;BME280;49747;51.334;6.830;2023-01-29T12:52:55;102067.22;;;3.28;74.55
63731;BME280;49747;51.334;6.830;2023-01-29T12:55:36;102071.78;;;3.20;74.24
63731;BME280;49747;51.334;6.830;2023-01-29T12:58:22;102070.22;;;3.11;74.00
63731;BME280;49747;51.334;6.830;2023-01-29T13:00:56;102066.53;;;3.20;73.93
63731;BME280;49747;51.334;6.830;2023-01-29T13:03:43;102040.47;;;3.09;74.55
63731;BME280;49747;51.334;6.830;2023-01-29T13:06:15;102058.63;;;3.62;73.41
63731;BME280;49747;51.334;6.830;2023-01-29T13:08:58;102037.41;;;3.71;72.64
63731;BME280;49747;51.334;6.830;2023-01-29T13:11:33;102052.41;;;3.66;73.03
63731;BME280;49747;51.334;6.830;2023-01-29T13:14:23;102032.66;;;3.46;73.31
63731;BME280;49747;51.334;6.830;2023-01-29T13:16:56;102037.81;;;3.53;73.78
63731;BME280;49747;51.334;6.830;2023-01-29T13:19:35;102042.00;;;3.61;72.67
63731;BME280;49747;51.334;6.830;2023-01-29T13:22:13;102048.28;;;3.54;72.76
63731;BME280;49747;51.334;6.830;2023-01-29T13:24:41;102046.59;;;3.50;72.82
63731;BME280;49747;51.334;6.830;2023-01-29T13:27:26;102041.34;;;3.50;73.66
63731;BME280;49747;51.334;6.830;2023-01-29T13:29:54;102042.31;;;3.48;73.72
63731;BME280;49747;51.334;6.830;2023-01-29T13:32:31;102035.81;;;3.64;72.85
63731;BME280;49747;51.334;6.830;2023-01-29T13:35:11;102037.59;;;3.62;73.47
63731;BME280;49747;51.334;6.830;2023-01-29T13:37:47;102040.97;;;3.67;72.94
63731;BME280;49747;51.334;6.830;2023-01-29T13:40:32;102041.28;;;3.53;73.92
63731;BME280;49747;51.334;6.830;2023-01-29T13:43:01;102045.81;;;3.46;74.03
63731;BME280;49747;51.334;6.830;2023-01-29T13:45:43;102027.53;;;3.81;73.07
63731;BME280;49747;51.334;6.830;2023-01-29T13:48:24;102044.31;;;3.75;73.39
63731;BME280;49747;51.334;6.830;2023-01-29T13:50:54;102035.31;;;4.88;100.00
63731;BME280;49747;51.334;6.830;2023-01-29T13:53:52;102043.06;;;5.55;88.00
63731;BME280;49747;51.334;6.830;2023-01-29T13:59:00;102039.69;;;4.56;72.49
63731;BME280;49747;51.334;6.830;2023-01-29T14:01:59;102040.69;;;4.51;71.30
63731;BME280;49747;51.334;6.830;2023-01-29T14:04:29;102041.69;;;4.11;72.35
63731;BME280;49747;51.334;6.830;2023-01-29T14:07:00;102037.66;;;4.33;72.41
63731;BME280;49747;51.334;6.830;2023-01-29T14:15:13;102025.31;;;4.35;72.04
63731;BME280;49747;51.334;6.830;2023-01-29T14:20:39;102026.22;;;3.61;74.61
63731;BME280;49747;51.334;6.830;2023-01-29T14:25:59;102002.34;;;3.70;74.27
63731;BME280;49747;51.334;6.830;2023-01-29T14:28:28;102016.09;;;3.82;74.40
63731;BME280;49747;51.334;6.830;2023-01-29T14:30:56;102014.63;;;3.70;74.57
63731;BME280;49747;51.334;6.830;2023-01-29T14:33:39;102016.84;;;3.88;74.67
63731;BME280;49747;51.334;6.830;2023-01-29T14:36:12;102006.75;;;4.07;73.88
63731;BME280;49747;51.334;6.830;2023-01-29T14:38:46;102005.28;;;3.94;74.40
63731;BME280;49747;51.334;6.830;2023-01-29T14:41:25;102016.72;;;3.93;73.95
63731;BME280;49747;51.334;6.830;2023-01-29T14:46:57;102005.66;;;3.79;75.08
63731;BME280;49747;51.334;6.830;2023-01-29T14:52:13;101999.06;;;3.98;74.77
63731;BME280;49747;51.334;6.830;2023-01-29T14:54:41;102003.22;;;4.08;74.28
63731;BME280;49747;51.334;6.830;2023-01-29T14:57:11;101995.25;;;3.76;75.58
63731;BME280;49747;51.334;6.830;2023-01-29T14:59:53;101992.63;;;3.76;75.64
63731;BME280;49747;51.334;6.830;2023-01-29T15:02:39;101989.38;;;3.63;76.65
63731;BME280;49747;51.334;6.830;2023-01-29T15:05:11;101980.44;;;3.72;75.38
63731;BME280;49747;51.334;6.830;2023-01-29T15:07:55;101987.91;;;3.88;75.23